createdAt,value
2023-03-04T00:00:06.569Z,95755.50
2023-03-04T00:02:37.066Z,95758.19
2023-03-04T00:05:04.117Z,95755.75
2023-03-04T00:07:30.810Z,95757.59
2023-03-04T00:09:57.617Z,95755.19
2023-03-04T00:12:24.262Z,95752.75
2023-03-04T00:14:51.009Z,95753.84
2023-03-04T00:17:17.663Z,95756.50
2023-03-04T00:19:44.296Z,95755.44
2023-03-04T00:22:11.073Z,95761.88
2023-03-04T00:24:37.703Z,95764.25
2023-03-04T00:27:04.413Z,95756.19
2023-03-04T00:29:30.999Z,95762.38
2023-03-04T00:31:57.766Z,95767.75
2023-03-04T00:34:24.573Z,95773.09
2023-03-04T00:36:51.704Z,95769.88
2023-03-04T00:39:18.278Z,95776.28
2023-03-04T00:41:44.933Z,95776.28
2023-03-04T00:44:12.880Z,95766.88
2023-03-04T00:46:39.438Z,95768.22
2023-03-04T00:49:06.024Z,95771.69
2023-03-04T00:51:32.797Z,95766.84
2023-03-04T00:54:00.937Z,95777.31
2023-03-04T00:56:28.602Z,95772.22
2023-03-04T00:58:55.822Z,95769.78
2023-03-04T01:01:22.718Z,95765.47
2023-03-04T01:03:49.622Z,95771.66
2023-03-04T01:06:16.362Z,95766.81
2023-03-04T01:08:44.605Z,95760.63
2023-03-04T01:11:11.260Z,95760.91
2023-03-04T01:13:38.178Z,95763.59
2023-03-04T01:16:05.181Z,95753.13
2023-03-04T01:18:32.380Z,95758.50
2023-03-04T01:20:59.641Z,95756.88
2023-03-04T01:23:26.336Z,95748.81
2023-03-04T01:25:53.362Z,95757.66
2023-03-04T01:28:20.058Z,95749.13
2023-03-04T01:30:47.996Z,95751.00
2023-03-04T01:33:14.889Z,95749.66
2023-03-04T01:35:42.511Z,95745.66
2023-03-04T01:38:09.160Z,95746.72
2023-03-04T01:40:36.952Z,95747.56
2023-03-04T01:43:03.782Z,95748.34
2023-03-04T01:45:32.455Z,95743.78
2023-03-04T01:47:59.139Z,95740.06
2023-03-04T01:50:33.845Z,95729.59
2023-03-04T01:53:01.748Z,95730.13
2023-03-04T01:55:29.483Z,95727.47
2023-03-04T01:57:56.324Z,95726.41
2023-03-04T02:00:43.826Z,95720.00
2023-03-04T02:03:15.172Z,95720.53
2023-03-04T02:05:45.835Z,95711.44
2023-03-04T02:08:15.348Z,95707.69
2023-03-04T02:10:43.508Z,95707.44
2023-03-04T02:13:13.096Z,95705.84
2023-03-04T02:15:39.997Z,95706.63
2023-03-04T02:18:25.541Z,95696.97
2023-03-04T02:21:14.446Z,95703.41
2023-03-04T02:23:48.052Z,95696.16
2023-03-04T02:26:17.524Z,95694.81
2023-03-04T02:28:48.432Z,95698.31
2023-03-04T02:31:24.110Z,95695.06
2023-03-04T02:33:52.748Z,95687.84
2023-03-04T02:36:21.077Z,95688.09
2023-03-04T02:38:51.329Z,95688.91
2023-03-04T02:41:21.034Z,95688.09
2023-03-04T02:43:52.270Z,95684.84
2023-03-04T02:46:19.488Z,95684.59
2023-03-04T02:48:47.213Z,95684.84
2023-03-04T02:51:13.883Z,95686.72
2023-03-04T02:53:40.768Z,95679.50
2023-03-04T02:56:07.743Z,95688.34
2023-03-04T02:58:36.739Z,95686.72
2023-03-04T03:01:03.610Z,95675.47
2023-03-04T03:03:30.350Z,95681.88
2023-03-04T03:05:57.050Z,95681.84
2023-03-04T03:08:25.477Z,95679.94
2023-03-04T03:10:53.455Z,95682.28
2023-03-04T03:13:21.380Z,95682.81
2023-03-04T03:15:50.052Z,95684.66
2023-03-04T03:18:16.910Z,95678.78
2023-03-04T03:20:43.522Z,95680.34
2023-03-04T03:23:10.313Z,95689.13
2023-03-04T03:25:36.940Z,95693.94
2023-03-04T03:28:05.680Z,95691.78
2023-03-04T03:30:32.329Z,95696.56
2023-03-04T03:32:58.904Z,95696.03
2023-03-04T03:35:25.661Z,95690.09
2023-03-04T03:37:52.334Z,95694.91
2023-03-04T03:40:18.965Z,95697.03
2023-03-04T03:42:45.603Z,95693.78
2023-03-04T03:45:12.299Z,95697.81
2023-03-04T03:47:38.903Z,95695.63
2023-03-04T03:50:06.030Z,95693.47
2023-03-04T03:52:32.644Z,95697.44
2023-03-04T03:55:01.659Z,95697.69
2023-03-04T03:57:29.753Z,95700.88
2023-03-04T03:59:57.008Z,95690.94
2023-03-04T04:02:25.672Z,95691.44
2023-03-04T04:04:54.141Z,95692.50
2023-03-04T04:07:20.732Z,95689.28
2023-03-04T04:09:47.400Z,95701.03
2023-03-04T04:12:18.810Z,95692.72
2023-03-04T04:14:45.714Z,95691.34
2023-03-04T04:17:13.023Z,95690.78
2023-03-04T04:19:41.041Z,95699.84
2023-03-04T04:22:08.520Z,95688.81
2023-03-04T04:24:35.274Z,95692.84
2023-03-04T04:27:02.148Z,95694.97
2023-03-04T04:29:29.142Z,95696.00
2023-03-04T04:31:55.947Z,95698.13
2023-03-04T04:34:22.677Z,95693.84
2023-03-04T04:36:49.578Z,95691.66
2023-03-04T04:39:16.218Z,95690.63
2023-03-04T04:41:44.988Z,95694.63
2023-03-04T04:44:13.156Z,95696.47
2023-03-04T04:46:40.263Z,95692.19
2023-03-04T04:49:07.825Z,95694.88
2023-03-04T04:51:37.077Z,95690.56
2023-03-04T04:54:04.500Z,95690.56
2023-03-04T04:56:31.550Z,95690.56
2023-03-04T04:59:00.536Z,95690.56
2023-03-04T05:01:27.759Z,95692.19
2023-03-04T05:03:54.710Z,95684.41
2023-03-04T05:06:24.157Z,95689.75
2023-03-04T05:08:51.628Z,95692.44
2023-03-04T05:11:19.313Z,95693.50
2023-03-04T05:13:46.690Z,95693.75
2023-03-04T05:16:13.440Z,95692.09
2023-03-04T05:18:40.440Z,95691.06
2023-03-04T05:21:07.188Z,95693.19
2023-03-04T05:23:36.845Z,95690.50
2023-03-04T05:26:04.722Z,95697.72
2023-03-04T05:28:31.592Z,95694.22
2023-03-04T05:30:58.422Z,95691.00
2023-03-04T05:33:25.110Z,95696.34
2023-03-04T05:35:52.228Z,95697.41
2023-03-04T05:38:22.801Z,95694.72
2023-03-04T05:41:03.688Z,95695.47
2023-03-04T05:43:32.136Z,95700.56
2023-03-04T05:46:05.436Z,95697.34
2023-03-04T05:48:49.735Z,95706.41
2023-03-04T05:51:16.392Z,95704.81
2023-03-04T05:56:31.287Z,95699.97
2023-03-04T05:58:58.373Z,95702.66
2023-03-04T06:01:25.798Z,95701.03
2023-03-04T06:03:53.106Z,95710.09
2023-03-04T06:06:20.318Z,95711.97
2023-03-04T06:08:49.770Z,95711.16
2023-03-04T06:11:16.657Z,95716.50
2023-03-04T06:13:43.392Z,95716.50
2023-03-04T06:16:15.812Z,95723.44
2023-03-04T06:18:44.820Z,95721.59
2023-03-04T06:21:11.974Z,95717.31
2023-03-04T06:23:39.273Z,95722.16
2023-03-04T06:26:09.427Z,95717.59
2023-03-04T06:28:36.112Z,95724.59
2023-03-04T06:31:02.900Z,95732.13
2023-03-04T06:33:29.503Z,95736.13
2023-03-04T06:35:57.337Z,95731.38
2023-03-04T06:38:25.369Z,95738.06
2023-03-04T06:40:52.282Z,95731.97
2023-03-04T06:43:19.744Z,95740.31
2023-03-04T06:45:46.658Z,95744.91
2023-03-04T06:48:13.427Z,95738.25
2023-03-04T06:50:40.612Z,95751.69
2023-03-04T06:53:07.305Z,95748.00
2023-03-04T06:55:34.016Z,95749.69
2023-03-04T06:58:00.699Z,95757.22
2023-03-04T07:00:27.592Z,95749.00
2023-03-04T07:02:55.396Z,95748.00
2023-03-04T07:05:22.020Z,95748.88
2023-03-04T07:07:48.858Z,95748.91
2023-03-04T07:10:15.429Z,95747.31
2023-03-04T07:12:42.134Z,95745.28
2023-03-04T07:15:09.656Z,95749.63
2023-03-04T07:17:36.591Z,95747.78
2023-03-04T07:20:03.896Z,95748.66
2023-03-04T07:22:33.122Z,95746.56
2023-03-04T07:25:02.627Z,95754.16
2023-03-04T07:27:29.356Z,95756.88
2023-03-04T07:29:56.094Z,95758.53
2023-03-04T07:32:23.049Z,95761.78
2023-03-04T07:34:49.944Z,95767.75
2023-03-04T07:37:17.036Z,95759.75
2023-03-04T07:39:44.918Z,95772.13
2023-03-04T07:42:11.701Z,95768.41
2023-03-04T07:44:41.077Z,95768.97
2023-03-04T07:47:07.680Z,95774.16
2023-03-04T07:49:34.344Z,95783.00
2023-03-04T07:52:04.704Z,95787.84
2023-03-04T07:54:32.937Z,95782.25
2023-03-04T07:56:59.893Z,95785.81
2023-03-04T07:59:26.672Z,95783.69
2023-03-04T08:01:53.344Z,95786.41
2023-03-04T08:04:20.121Z,95791.53
2023-03-04T08:06:47.042Z,95777.31
2023-03-04T08:09:14.203Z,95783.78
2023-03-04T08:11:42.105Z,95793.97
2023-03-04T08:14:12.086Z,95793.22
2023-03-04T08:16:40.288Z,95792.94
2023-03-04T08:19:07.938Z,95793.22
2023-03-04T08:21:35.702Z,95793.25
2023-03-04T08:24:03.494Z,95790.28
2023-03-04T08:26:33.635Z,95799.97
2023-03-04T08:29:02.367Z,95795.41
2023-03-04T08:31:31.482Z,95800.31
2023-03-04T08:33:58.227Z,95795.22
2023-03-04T08:36:27.408Z,95791.22
2023-03-04T08:38:54.498Z,95786.63
2023-03-04T08:41:22.450Z,95790.41
2023-03-04T08:43:49.200Z,95782.38
2023-03-04T08:46:16.107Z,95785.59
2023-03-04T08:48:43.052Z,95788.28
2023-03-04T08:51:17.399Z,95790.72
2023-03-04T08:53:45.025Z,95782.97
2023-03-04T08:56:13.524Z,95794.78
2023-03-04T08:58:40.627Z,95792.94
2023-03-04T09:01:12.528Z,95793.75
2023-03-04T09:03:40.226Z,95791.59
2023-03-04T09:06:08.777Z,95791.59
2023-03-04T09:08:35.621Z,95785.97
2023-03-04T09:11:02.680Z,95779.25
2023-03-04T09:13:31.239Z,95784.63
2023-03-04T09:15:58.935Z,95774.72
2023-03-04T09:18:28.766Z,95780.06
2023-03-04T09:20:55.662Z,95773.09
2023-03-04T09:23:23.037Z,95774.97
2023-03-04T09:25:49.844Z,95769.59
2023-03-04T09:28:18.485Z,95771.47
2023-03-04T09:30:50.244Z,95767.97
2023-03-04T09:33:17.532Z,95764.72
2023-03-04T09:35:44.381Z,95757.47
2023-03-04T09:38:11.228Z,95756.66
2023-03-04T09:40:38.031Z,95753.66
2023-03-04T09:43:07.012Z,95756.09
2023-03-04T09:45:47.195Z,95756.06
2023-03-04T09:48:18.075Z,95745.84
2023-03-04T09:51:18.050Z,95750.41
2023-03-04T09:54:23.095Z,95755.00
2023-03-04T09:56:56.930Z,95753.59
2023-03-04T09:59:41.528Z,95745.75
2023-03-04T10:02:28.161Z,95745.72
2023-03-04T10:05:00.874Z,95741.16
2023-03-04T10:07:35.406Z,95744.59
2023-03-04T10:10:07.205Z,95742.94
2023-03-04T10:12:38.413Z,95744.53
2023-03-04T10:15:17.230Z,95737.97
2023-03-04T10:17:48.788Z,95737.41
2023-03-04T10:20:26.354Z,95734.09
2023-03-04T10:22:59.940Z,95737.56
2023-03-04T10:25:32.843Z,95729.66
2023-03-04T10:28:04.887Z,95728.53
2023-03-04T10:30:57.076Z,95720.16
2023-03-04T10:33:30.256Z,95719.59
2023-03-04T10:36:01.973Z,95725.50
2023-03-04T10:38:35.758Z,95715.50
2023-03-04T10:41:16.073Z,95717.53
2023-03-04T10:43:43.808Z,95725.56
2023-03-04T10:46:12.005Z,95719.31
2023-03-04T10:48:43.193Z,95719.81
2023-03-04T10:51:22.408Z,95707.09
2023-03-04T10:53:53.121Z,95711.13
2023-03-04T10:56:42.682Z,95710.31
2023-03-04T10:59:35.023Z,95709.13
2023-03-04T11:02:14.580Z,95704.78
2023-03-04T11:04:41.285Z,95697.44
2023-03-04T11:07:11.534Z,95702.47
2023-03-04T11:09:38.381Z,95690.53
2023-03-04T11:12:11.969Z,95698.22
2023-03-04T11:14:58.959Z,95693.50
2023-03-04T11:17:28.172Z,95692.34
2023-03-04T11:20:06.014Z,95687.38
2023-03-04T11:22:32.844Z,95684.97
2023-03-04T11:25:05.934Z,95687.25
2023-03-04T11:27:33.563Z,95684.94
2023-03-04T11:30:29.145Z,95684.72
2023-03-04T11:33:08.801Z,95675.34
2023-03-04T11:35:44.025Z,95693.75
2023-03-04T11:38:24.690Z,95672.34
2023-03-04T11:40:58.743Z,95682.19
2023-03-04T11:43:34.863Z,95684.91
2023-03-04T11:46:24.221Z,95670.84
2023-03-04T11:49:14.686Z,95676.69
2023-03-04T11:51:46.575Z,95667.25
2023-03-04T11:54:23.553Z,95664.66
2023-03-04T11:57:04.661Z,95671.09
2023-03-04T12:00:15.843Z,95671.59
2023-03-04T12:02:54.637Z,95663.03
2023-03-04T12:05:29.894Z,95663.84
2023-03-04T12:08:21.731Z,95658.44
2023-03-04T12:11:00.103Z,95655.22
2023-03-04T12:13:39.645Z,95654.59
2023-03-04T12:16:19.267Z,95648.22
2023-03-04T12:18:56.560Z,95658.16
2023-03-04T12:21:41.934Z,95639.16
2023-03-04T12:24:21.368Z,95639.16
2023-03-04T12:27:01.284Z,95640.13
2023-03-04T12:29:36.582Z,95630.31
2023-03-04T12:32:22.532Z,95629.00
2023-03-04T12:35:27.331Z,95628.50
2023-03-04T12:38:18.671Z,95629.09
2023-03-04T12:40:53.755Z,95625.31
2023-03-04T12:43:47.928Z,95627.50
2023-03-04T12:46:22.222Z,95612.03
2023-03-04T12:49:09.828Z,95606.63
2023-03-04T12:51:50.985Z,95598.22
2023-03-04T12:54:27.757Z,95604.94
2023-03-04T12:57:26.987Z,95606.13
2023-03-04T13:00:23.119Z,95596.00
2023-03-04T13:02:58.587Z,95594.13
2023-03-04T13:06:05.876Z,95591.91
2023-03-04T13:08:44.124Z,95584.84
2023-03-04T13:11:31.008Z,95582.44
2023-03-04T13:14:13.623Z,95575.94
2023-03-04T13:17:01.348Z,95574.44
2023-03-04T13:19:57.350Z,95578.97
2023-03-04T13:22:39.159Z,95579.47
2023-03-04T13:25:27.508Z,95581.59
2023-03-04T13:28:00.538Z,95573.56
2023-03-04T13:33:14.082Z,95569.16
2023-03-04T13:35:46.725Z,95565.88
2023-03-04T13:38:28.732Z,95570.84
2023-03-04T13:41:13.856Z,95566.44
2023-03-04T13:43:44.599Z,95572.75
2023-03-04T13:46:21.331Z,95571.84
2023-03-04T13:48:51.264Z,95571.44
2023-03-04T13:51:28.927Z,95574.44
2023-03-04T13:54:08.170Z,95560.41
2023-03-04T13:57:00.853Z,95558.97
2023-03-04T13:59:29.698Z,95559.53
2023-03-04T14:02:10.465Z,95557.66
2023-03-04T14:04:39.114Z,95564.09
2023-03-04T14:07:20.715Z,95556.13
2023-03-04T14:10:02.662Z,95557.25
2023-03-04T14:12:32.499Z,95557.03
2023-03-04T14:15:04.312Z,95555.94
2023-03-04T14:17:36.529Z,95552.00
2023-03-04T14:20:05.896Z,95551.91
2023-03-04T14:22:39.084Z,95550.28
2023-03-04T14:25:14.701Z,95550.28
2023-03-04T14:27:41.484Z,95563.66
2023-03-04T14:30:40.791Z,95554.25
2023-03-04T14:33:15.978Z,95559.84
2023-03-04T14:35:48.002Z,95557.66
2023-03-04T14:38:25.940Z,95547.66
2023-03-04T14:41:05.749Z,95549.53
2023-03-04T14:43:38.395Z,95548.09
2023-03-04T14:46:12.380Z,95560.16
2023-03-04T14:48:39.773Z,95555.78
2023-03-04T14:51:06.515Z,95557.06
2023-03-04T14:53:33.982Z,95552.88
2023-03-04T14:56:09.217Z,95557.31
2023-03-04T14:58:37.614Z,95554.50
2023-03-04T15:01:20.189Z,95556.53
2023-03-04T15:03:58.092Z,95566.06
2023-03-04T15:06:27.200Z,95562.44
2023-03-04T15:08:58.594Z,95549.19
2023-03-04T15:11:32.783Z,95556.94
2023-03-04T15:14:01.965Z,95557.63
2023-03-04T15:16:49.254Z,95563.44
2023-03-04T15:19:28.583Z,95552.50
2023-03-04T15:22:06.685Z,95553.13
2023-03-04T15:24:35.916Z,95561.44
2023-03-04T15:27:02.842Z,95550.72
2023-03-04T15:29:29.476Z,95556.41
2023-03-04T15:31:56.242Z,95561.66
2023-03-04T15:34:22.860Z,95565.06
2023-03-04T15:36:51.086Z,95555.47
2023-03-04T15:39:19.480Z,95567.38
2023-03-04T15:41:46.162Z,95555.81
2023-03-04T15:44:13.160Z,95567.41
2023-03-04T15:46:40.255Z,95562.63
2023-03-04T15:49:06.912Z,95569.66
2023-03-04T15:51:33.732Z,95573.19
2023-03-04T15:54:01.125Z,95567.50
2023-03-04T15:56:31.114Z,95576.69
2023-03-04T15:59:06.389Z,95575.72
2023-03-04T16:01:33.078Z,95565.47
2023-03-04T16:03:59.788Z,95569.81
2023-03-04T16:06:30.682Z,95567.25
2023-03-04T16:08:58.533Z,95573.69
2023-03-04T16:11:30.144Z,95571.03
2023-03-04T16:13:57.449Z,95575.41
2023-03-04T16:16:24.235Z,95578.38
2023-03-04T16:18:50.872Z,95581.38
2023-03-04T16:21:20.417Z,95583.31
2023-03-04T16:23:49.046Z,95584.69
2023-03-04T16:26:18.517Z,95583.59
2023-03-04T16:28:48.569Z,95594.13
2023-03-04T16:31:15.882Z,95590.63
2023-03-04T16:33:45.475Z,95590.06
2023-03-04T16:36:22.223Z,95591.97
2023-03-04T16:38:49.817Z,95586.34
2023-03-04T16:41:17.813Z,95589.06
2023-03-04T16:43:44.328Z,95593.06
2023-03-04T16:46:12.857Z,95589.88
2023-03-04T16:48:40.364Z,95589.03
2023-03-04T16:51:14.397Z,95603.81
2023-03-04T16:53:43.795Z,95601.91
2023-03-04T16:56:14.079Z,95601.91
2023-03-04T16:58:41.803Z,95613.19
2023-03-04T17:01:16.543Z,95605.41
2023-03-04T17:03:43.352Z,95611.81
2023-03-04T17:06:11.125Z,95611.03
2023-03-04T17:08:38.072Z,95611.03
2023-03-04T17:11:04.815Z,95617.97
2023-03-04T17:13:31.607Z,95627.13
2023-03-04T17:16:03.147Z,95636.22
2023-03-04T17:18:30.367Z,95634.34
2023-03-04T17:21:07.459Z,95646.13
2023-03-04T17:23:35.636Z,95647.22
2023-03-04T17:26:02.649Z,95650.66
2023-03-04T17:28:33.117Z,95645.84
2023-03-04T17:30:59.777Z,95641.50
2023-03-04T17:33:26.750Z,95650.88
2023-03-04T17:35:55.805Z,95652.22
2023-03-04T17:38:22.444Z,95656.56
2023-03-04T17:40:49.109Z,95656.03
2023-03-04T17:43:15.701Z,95657.34
2023-03-04T17:45:42.880Z,95664.34
2023-03-04T17:48:11.717Z,95672.06
2023-03-04T17:50:38.404Z,95677.41
2023-03-04T17:53:05.008Z,95681.22
2023-03-04T17:55:31.681Z,95685.72
2023-03-04T17:57:58.416Z,95684.34
2023-03-04T18:00:25.391Z,95688.34
2023-03-04T18:02:52.036Z,95688.63
2023-03-04T18:05:18.800Z,95692.88
2023-03-04T18:07:45.472Z,95694.78
2023-03-04T18:10:12.439Z,95686.47
2023-03-04T18:12:39.158Z,95695.81
2023-03-04T18:15:06.445Z,95695.28
2023-03-04T18:17:33.104Z,95700.63
2023-03-04T18:19:59.921Z,95700.38
2023-03-04T18:22:26.652Z,95693.91
2023-03-04T18:24:53.553Z,95701.44
2023-03-04T18:27:20.315Z,95700.31
2023-03-04T18:29:46.989Z,95708.34
2023-03-04T18:32:13.851Z,95709.97
2023-03-04T18:34:40.708Z,95706.75
2023-03-04T18:37:07.397Z,95712.63
2023-03-04T18:39:34.008Z,95704.09
2023-03-04T18:42:01.108Z,95707.56
2023-03-04T18:44:27.754Z,95711.53
2023-03-04T18:46:56.697Z,95705.84
2023-03-04T18:49:24.119Z,95714.91
2023-03-04T18:51:51.726Z,95707.13
2023-03-04T18:54:18.402Z,95712.75
2023-03-04T18:56:51.392Z,95714.63
2023-03-04T18:59:20.348Z,95717.38
2023-03-04T19:01:48.081Z,95718.97
2023-03-04T19:04:15.939Z,95717.31
2023-03-04T19:06:42.945Z,95726.91
2023-03-04T19:09:10.622Z,95723.13
2023-03-04T19:11:37.448Z,95724.78
2023-03-04T19:14:04.602Z,95732.75
2023-03-04T19:16:31.485Z,95731.88
2023-03-04T19:18:58.293Z,95732.47
2023-03-04T19:21:24.914Z,95739.66
2023-03-04T19:23:51.532Z,95737.50
2023-03-04T19:26:20.373Z,95737.47
2023-03-04T19:28:47.075Z,95736.38
2023-03-04T19:31:14.013Z,95739.06
2023-03-04T19:33:41.055Z,95736.88
2023-03-04T19:36:08.987Z,95737.94
2023-03-04T19:38:35.948Z,95739.00
2023-03-04T19:41:14.630Z,95732.28
2023-03-04T19:43:41.474Z,95730.69
2023-03-04T19:46:09.659Z,95744.66
2023-03-04T19:48:37.882Z,95731.28
2023-03-04T19:51:04.716Z,95738.16
2023-03-04T19:53:34.620Z,95734.25
2023-03-04T19:56:01.665Z,95734.75
2023-03-04T19:58:28.574Z,95728.53
2023-03-04T20:00:55.333Z,95730.66
2023-03-04T20:03:22.208Z,95732.53
2023-03-04T20:05:48.923Z,95734.91
2023-03-04T20:08:15.603Z,95729.78
2023-03-04T20:10:42.319Z,95727.94
2023-03-04T20:13:09.911Z,95733.84
2023-03-04T20:15:36.703Z,95735.16
2023-03-04T20:18:04.471Z,95739.19
2023-03-04T20:20:31.411Z,95745.59
2023-03-04T20:22:58.667Z,95730.13
2023-03-04T20:25:25.535Z,95738.41
2023-03-04T20:27:52.252Z,95739.50
2023-03-04T20:30:21.356Z,95736.28
2023-03-04T20:32:48.080Z,95733.03
2023-03-04T20:35:15.066Z,95735.16
2023-03-04T20:37:43.036Z,95732.47
2023-03-04T20:40:11.360Z,95736.78
2023-03-04T20:42:38.104Z,95734.91
2023-03-04T20:45:07.866Z,95729.53
2023-03-04T20:47:34.803Z,95729.00
2023-03-04T20:50:01.551Z,95729.78
2023-03-04T20:52:28.252Z,95721.50
2023-03-04T20:54:54.921Z,95718.03
2023-03-04T20:57:21.608Z,95719.09
2023-03-04T20:59:50.009Z,95709.47
2023-03-04T21:02:18.849Z,95717.50
2023-03-04T21:04:45.735Z,95718.28
2023-03-04T21:07:14.259Z,95713.72
2023-03-04T21:09:41.001Z,95713.72
2023-03-04T21:12:08.094Z,95710.00
2023-03-04T21:14:35.443Z,95713.22
2023-03-04T21:17:04.543Z,95701.72
2023-03-04T21:19:34.279Z,95698.00
2023-03-04T21:22:01.819Z,95702.84
2023-03-04T21:24:31.722Z,95699.91
2023-03-04T21:26:58.571Z,95697.75
2023-03-04T21:29:26.465Z,95699.41
2023-03-04T21:31:54.578Z,95705.75
2023-03-04T21:34:46.289Z,95708.47
2023-03-04T21:37:18.564Z,95703.66
2023-03-04T21:42:12.096Z,95695.38
2023-03-04T21:44:50.113Z,95701.81
2023-03-04T21:47:17.183Z,95703.66
2023-03-04T21:49:44.258Z,95704.75
2023-03-04T21:52:11.046Z,95698.56
2023-03-04T21:54:37.889Z,95694.03
2023-03-04T21:57:04.770Z,95702.31
2023-03-04T21:59:33.198Z,95689.19
2023-03-04T22:01:59.844Z,95685.94
2023-03-04T22:04:26.682Z,95691.81
2023-03-04T22:06:53.444Z,95690.22
2023-03-04T22:09:20.352Z,95683.75
2023-03-04T22:11:48.048Z,95673.78
2023-03-04T22:14:14.844Z,95671.88
2023-03-04T22:16:55.490Z,95667.28
2023-03-04T22:19:24.493Z,95667.00
2023-03-04T22:21:52.881Z,95666.94
2023-03-04T22:24:20.368Z,95668.81
2023-03-04T22:26:47.121Z,95661.84
2023-03-04T22:29:13.927Z,95651.41
2023-03-04T22:31:40.665Z,95655.94
2023-03-04T22:34:10.637Z,95660.22
2023-03-04T22:36:40.058Z,95659.44
2023-03-04T22:39:08.894Z,95660.47
2023-03-04T22:41:35.701Z,95646.28
2023-03-04T22:44:02.549Z,95638.47
2023-03-04T22:46:31.477Z,95641.16
2023-03-04T22:49:00.649Z,95640.91
2023-03-04T22:51:28.497Z,95636.31
2023-03-04T22:53:56.110Z,95637.13
2023-03-04T22:56:23.005Z,95638.75
2023-03-04T22:58:50.212Z,95641.16
2023-03-04T23:01:18.725Z,95648.94
2023-03-04T23:03:48.260Z,95651.34
2023-03-04T23:12:43.841Z,95656.19
2023-03-04T23:15:13.310Z,95655.69
2023-03-04T23:17:47.430Z,95666.41
2023-03-04T23:20:20.896Z,95661.06
2023-03-04T23:22:48.985Z,95652.50
2023-03-04T23:25:17.928Z,95654.94
2023-03-04T23:27:44.663Z,95650.13
2023-03-04T23:30:15.941Z,95641.31
2023-03-04T23:32:44.584Z,95647.19
2023-03-04T23:35:13.176Z,95642.38
2023-03-04T23:37:39.892Z,95631.69
2023-03-04T23:40:08.078Z,95630.59
2023-03-04T23:42:34.719Z,95631.16
2023-03-04T23:45:01.450Z,95626.34
2023-03-04T23:47:28.272Z,95630.09
2023-03-04T23:49:54.963Z,95625.53
2023-03-04T23:52:21.664Z,95622.59
2023-03-04T23:54:48.312Z,95623.91
2023-03-04T23:57:15.031Z,95623.41
2023-03-04T23:59:41.750Z,95624.44
